Time;durP1;ratioP1;P1;durP2;ratioP2;P2;SDS_P1;SDS_P2;PMS_P1;PMS_P2;Temp;Humidity;BMP_temperature;BMP_pressure;BME280_temperature;BME280_humidity;BME280_pressure;Samples;Min_cycle;Max_cycle;Signal;HPM_P1;HPM_P2
2021/03/02 00:01:41;;;;;;;42.07;32.50;;;;;;;;;;5014789;28;20456;-65
2021/03/02 00:04:08;;;;;;;39.40;32.53;;;;;;;;;;4998300;28;20946;-64
2021/03/02 00:06:35;;;;;;;36.37;31.97;;;;;;;;;;4994316;28;20566;-64
2021/03/02 00:09:01;;;;;;;38.00;32.20;;;;;;;;;;4994242;28;20482;-65
2021/03/02 00:11:30;;;;;;;45.57;34.60;;;;;;;;;;4994945;28;20500;-65
2021/03/02 00:13:56;;;;;;;40.53;32.60;;;;;;;;;;4994236;28;20451;-65
2021/03/02 00:16:25;;;;;;;37.63;32.40;;;;;;;;;;4994133;28;20462;-65
2021/03/02 00:18:55;;;;;;;48.37;32.90;;;;;;;;;;4994032;28;20458;-65
2021/03/02 00:21:25;;;;;;;42.27;33.67;;;;;;;;;;4994381;28;20971;-65
2021/03/02 00:23:53;;;;;;;41.87;32.90;;;;;;;;;;4993962;28;20466;-65
2021/03/02 00:26:21;;;;;;;40.63;33.70;;;;;;;;;;4994461;28;20501;-64
2021/03/02 00:28:50;;;;;;;46.80;32.33;;;;;;;;;;4992475;28;20454;-65
2021/03/02 00:31:17;;;;;;;42.40;33.40;;;;;;;;;;4992911;28;20450;-64
2021/03/02 00:33:46;;;;;;;45.53;35.10;;;;;;;;;;4996469;28;20516;-65
2021/03/02 00:36:13;;;;;;;38.90;33.10;;;;;;;;;;5004690;28;20950;-65
2021/03/02 00:38:39;;;;;;;41.73;32.60;;;;;;;;;;4994470;28;20450;-65
2021/03/02 00:41:06;;;;;;;44.17;33.17;;;;;;;;;;4993705;28;20462;-65
2021/03/02 00:43:33;;;;;;;44.30;34.10;;;;;;;;;;4994452;28;20465;-65
2021/03/02 00:46:00;;;;;;;45.37;34.30;;;;;;;;;;4993180;28;20482;-65
2021/03/02 00:48:27;;;;;;;45.60;33.97;;;;;;;;;;4994122;28;20450;-64
2021/03/02 00:50:53;;;;;;;42.23;31.70;;;;;;;;;;4993319;28;20532;-64
2021/03/02 00:53:21;;;;;;;43.97;32.20;;;;;;;;;;5012338;23;20522;-62
2021/03/02 00:55:48;;;;;;;47.87;33.87;;;;;;;;;;4973040;28;20554;-62
2021/03/02 00:58:14;;;;;;;45.53;35.80;;;;;;;;;;4981512;28;20533;-62
2021/03/02 01:00:41;;;;;;;40.43;32.77;;;;;;;;;;4974362;28;20478;-62
2021/03/02 01:03:08;;;;;;;47.20;34.53;;;;;;;;;;4966280;28;20476;-62
2021/03/02 01:05:35;;;;;;;48.00;33.27;;;;;;;;;;4967046;28;20491;-62
2021/03/02 01:08:02;;;;;;;45.20;35.40;;;;;;;;;;4956281;28;20843;-62
2021/03/02 01:10:28;;;;;;;44.67;34.20;;;;;;;;;;4955169;28;20461;-62
2021/03/02 01:12:55;;;;;;;46.10;33.40;;;;;;;;;;4954693;28;20479;-62
2021/03/02 01:15:22;;;;;;;45.60;33.67;;;;;;;;;;4954175;28;21059;-62
2021/03/02 01:17:48;;;;;;;45.70;33.47;;;;;;;;;;4954758;28;20468;-62
2021/03/02 01:20:16;;;;;;;53.33;38.40;;;;;;;;;;4954824;29;20460;-64
2021/03/02 01:22:43;;;;;;;46.73;35.20;;;;;;;;;;4954160;28;20479;-64
2021/03/02 01:25:10;;;;;;;52.80;35.77;;;;;;;;;;4955004;28;20487;-65
2021/03/02 01:27:37;;;;;;;54.57;36.00;;;;;;;;;;4954124;29;20457;-64
2021/03/02 01:30:04;;;;;;;49.07;35.00;;;;;;;;;;4954186;28;20448;-63
2021/03/02 01:32:31;;;;;;;49.73;34.23;;;;;;;;;;4954544;29;20472;-64
2021/03/02 01:34:57;;;;;;;49.00;35.17;;;;;;;;;;4967600;28;20474;-64
2021/03/02 01:37:25;;;;;;;52.70;35.73;;;;;;;;;;4973533;28;20459;-63
2021/03/02 01:39:51;;;;;;;54.03;35.90;;;;;;;;;;4957572;28;20556;-63
2021/03/02 01:42:18;;;;;;;49.77;34.90;;;;;;;;;;4954014;29;20456;-63
2021/03/02 01:44:45;;;;;;;54.30;35.80;;;;;;;;;;4953968;29;20456;-64
2021/03/02 01:47:11;;;;;;;51.70;34.60;;;;;;;;;;4954269;28;20452;-63
2021/03/02 01:49:38;;;;;;;58.67;39.50;;;;;;;;;;4953819;29;20522;-64
2021/03/02 01:52:05;;;;;;;53.10;35.17;;;;;;;;;;4954153;29;20452;-64
2021/03/02 01:54:32;;;;;;;65.60;40.77;;;;;;;;;;4953524;28;21045;-63
2021/03/02 01:56:59;;;;;;;51.50;37.17;;;;;;;;;;4953922;28;20463;-63
2021/03/02 01:59:25;;;;;;;54.87;37.13;;;;;;;;;;4953559;29;20456;-63
2021/03/02 02:01:53;;;;;;;56.90;39.33;;;;;;;;;;4964413;28;20459;-64
2021/03/02 02:04:22;;;;;;;52.27;38.50;;;;;;;;;;4967444;28;20503;-63
2021/03/02 02:06:51;;;;;;;52.63;37.23;;;;;;;;;;4971536;28;20514;-63
2021/03/02 02:09:23;;;;;;;51.83;36.13;;;;;;;;;;4965978;28;20468;-63
2021/03/02 02:11:53;;;;;;;56.53;39.77;;;;;;;;;;4953685;29;20448;-62
2021/03/02 02:14:23;;;;;;;53.73;39.97;;;;;;;;;;4953608;28;20527;-63
2021/03/02 02:16:50;;;;;;;59.63;38.73;;;;;;;;;;4953132;28;20452;-63
2021/03/02 02:19:23;;;;;;;53.67;38.53;;;;;;;;;;4953950;29;20448;-63
2021/03/02 02:21:56;;;;;;;61.67;38.70;;;;;;;;;;4953709;29;20440;-65
2021/03/02 02:24:25;;;;;;;57.00;38.47;;;;;;;;;;4953629;28;20531;-63
2021/03/02 02:26:57;;;;;;;57.03;38.07;;;;;;;;;;4953242;28;20845;-63
2021/03/02 02:29:25;;;;;;;63.70;40.43;;;;;;;;;;4953097;29;20519;-63
2021/03/02 02:31:53;;;;;;;71.90;43.90;;;;;;;;;;4953588;29;20452;-63
2021/03/02 02:34:20;;;;;;;67.27;42.70;;;;;;;;;;4952890;29;20515;-64
2021/03/02 02:36:48;;;;;;;74.63;46.57;;;;;;;;;;4953205;29;20948;-64
2021/03/02 02:39:16;;;;;;;62.63;41.43;;;;;;;;;;4958285;28;20464;-63
2021/03/02 02:41:44;;;;;;;75.90;45.77;;;;;;;;;;4953272;28;20460;-64
2021/03/02 02:44:11;;;;;;;75.63;48.30;;;;;;;;;;4953113;28;20483;-64
2021/03/02 02:46:38;;;;;;;69.30;44.23;;;;;;;;;;4952767;29;20484;-64
2021/03/02 02:49:05;;;;;;;67.83;43.00;;;;;;;;;;4953242;28;20456;-64
2021/03/02 02:51:32;;;;;;;75.97;47.30;;;;;;;;;;4953818;28;20463;-64
2021/03/02 02:53:59;;;;;;;79.13;47.53;;;;;;;;;;4956344;28;20857;-63
2021/03/02 02:56:26;;;;;;;78.97;45.30;;;;;;;;;;4957231;28;20463;-64
2021/03/02 02:58:59;;;;;;;103.77;49.93;;;;;;;;;;4956606;28;20448;-64
2021/03/02 03:01:28;;;;;;;85.20;46.83;;;;;;;;;;4956797;29;21007;-63
2021/03/02 03:03:57;;;;;;;89.83;49.27;;;;;;;;;;4956681;28;20476;-64
2021/03/02 03:06:25;;;;;;;81.43;46.40;;;;;;;;;;4969203;28;20479;-63
2021/03/02 03:08:53;;;;;;;75.97;45.60;;;;;;;;;;4957309;28;20459;-64
2021/03/02 03:11:21;;;;;;;79.97;47.27;;;;;;;;;;4957101;29;20488;-64
2021/03/02 03:13:49;;;;;;;73.17;44.80;;;;;;;;;;4956700;28;20507;-64
2021/03/02 03:16:17;;;;;;;113.90;52.33;;;;;;;;;;4956353;29;20497;-63
2021/03/02 03:18:47;;;;;;;131.53;49.87;;;;;;;;;;4960585;28;20951;-63
2021/03/02 03:21:14;;;;;;;107.20;44.30;;;;;;;;;;4957079;29;20452;-64
2021/03/02 03:23:41;;;;;;;150.23;46.67;;;;;;;;;;4957198;28;20527;-63
2021/03/02 03:26:08;;;;;;;190.90;53.60;;;;;;;;;;4956123;28;20531;-63
2021/03/02 03:28:34;;;;;;;152.47;49.57;;;;;;;;;;4956710;28;20951;-63
2021/03/02 03:31:01;;;;;;;150.40;50.13;;;;;;;;;;4956162;28;20460;-63
2021/03/02 03:33:29;;;;;;;153.73;50.13;;;;;;;;;;4962706;28;20479;-63
2021/03/02 03:35:57;;;;;;;260.23;54.13;;;;;;;;;;4956319;28;20947;-63
2021/03/02 03:38:23;;;;;;;141.07;47.30;;;;;;;;;;4956632;29;20897;-63
2021/03/02 03:40:50;;;;;;;222.23;56.60;;;;;;;;;;4956005;28;20960;-63
2021/03/02 03:43:17;;;;;;;150.13;50.23;;;;;;;;;;4956550;28;20527;-63
2021/03/02 03:45:44;;;;;;;204.10;52.80;;;;;;;;;;4956166;28;20546;-63
2021/03/02 03:48:11;;;;;;;260.43;55.40;;;;;;;;;;4956286;29;20463;-63
2021/03/02 03:50:38;;;;;;;376.53;74.10;;;;;;;;;;4956235;28;20454;-64
2021/03/02 03:53:06;;;;;;;124.50;47.23;;;;;;;;;;4956552;28;20495;-63
2021/03/02 03:55:36;;;;;;;169.00;50.00;;;;;;;;;;4955979;28;20471;-64
2021/03/02 03:58:03;;;;;;;260.23;56.47;;;;;;;;;;4956403;29;20500;-63
2021/03/02 04:00:30;;;;;;;165.77;47.90;;;;;;;;;;4963142;28;21146;-62
2021/03/02 04:02:57;;;;;;;130.60;44.43;;;;;;;;;;4955548;28;20476;-63
2021/03/02 04:05:24;;;;;;;83.23;44.10;;;;;;;;;;4955749;29;20495;-63
2021/03/02 04:07:52;;;;;;;155.53;53.30;;;;;;;;;;4955917;28;20459;-63
2021/03/02 04:10:20;;;;;;;143.27;45.47;;;;;;;;;;4956187;29;20448;-64
2021/03/02 04:12:47;;;;;;;74.97;43.53;;;;;;;;;;4955203;28;20472;-63
2021/03/02 04:15:15;;;;;;;75.30;44.83;;;;;;;;;;4955947;28;20919;-63
2021/03/02 04:17:49;;;;;;;264.37;65.90;;;;;;;;;;4955664;29;20539;-63
2021/03/02 04:20:16;;;;;;;265.77;58.00;;;;;;;;;;4955839;29;20463;-63
2021/03/02 04:22:42;;;;;;;152.60;54.87;;;;;;;;;;4955267;29;20484;-63
2021/03/02 04:25:09;;;;;;;292.90;60.70;;;;;;;;;;4955528;29;20491;-63
2021/03/02 04:27:37;;;;;;;281.47;63.20;;;;;;;;;;4955311;28;20452;-63
2021/03/02 04:30:04;;;;;;;131.80;49.77;;;;;;;;;;4955517;29;20463;-63
2021/03/02 04:32:30;;;;;;;108.47;49.90;;;;;;;;;;4955098;28;20456;-63
2021/03/02 04:34:57;;;;;;;113.97;51.57;;;;;;;;;;4955271;29;20960;-63
2021/03/02 04:37:24;;;;;;;74.67;43.73;;;;;;;;;;4954716;28;20456;-63
2021/03/02 04:39:50;;;;;;;70.37;46.63;;;;;;;;;;4955388;29;20974;-63
2021/03/02 04:42:17;;;;;;;187.43;56.10;;;;;;;;;;4956464;28;20511;-63
2021/03/02 04:44:44;;;;;;;73.87;43.40;;;;;;;;;;4955300;29;20860;-63
2021/03/02 04:47:11;;;;;;;244.60;60.67;;;;;;;;;;4954926;28;20480;-63
2021/03/02 04:49:37;;;;;;;152.43;49.30;;;;;;;;;;4955196;28;20459;-63
2021/03/02 04:52:04;;;;;;;78.27;45.50;;;;;;;;;;4954963;28;20508;-63
2021/03/02 04:54:31;;;;;;;53.83;40.60;;;;;;;;;;4954627;28;20600;-63
2021/03/02 04:56:57;;;;;;;70.93;40.80;;;;;;;;;;4967529;28;20452;-63
2021/03/02 04:59:24;;;;;;;83.07;44.80;;;;;;;;;;4954783;28;20479;-63
2021/03/02 05:01:51;;;;;;;83.90;42.97;;;;;;;;;;4954884;28;20522;-62
2021/03/02 05:04:18;;;;;;;80.77;43.20;;;;;;;;;;4953741;28;20480;-63
2021/03/02 05:06:45;;;;;;;69.77;49.80;;;;;;;;;;4954255;28;21003;-63
2021/03/02 05:09:12;;;;;;;73.83;50.77;;;;;;;;;;4955035;28;20507;-64
2021/03/02 05:11:38;;;;;;;74.00;50.30;;;;;;;;;;4954933;29;20467;-63
2021/03/02 05:14:05;;;;;;;62.97;47.67;;;;;;;;;;4954030;28;20887;-63
2021/03/02 05:16:32;;;;;;;83.53;49.27;;;;;;;;;;4953781;28;20460;-63
2021/03/02 05:18:59;;;;;;;94.20;52.27;;;;;;;;;;4954352;28;20531;-63
2021/03/02 05:21:26;;;;;;;154.27;57.57;;;;;;;;;;4955097;28;20791;-63
2021/03/02 05:23:52;;;;;;;103.10;53.93;;;;;;;;;;4954210;28;20472;-63
2021/03/02 05:26:21;;;;;;;151.57;62.77;;;;;;;;;;4954252;28;20506;-63
2021/03/02 05:28:48;;;;;;;131.83;58.40;;;;;;;;;;4953942;28;20734;-63
2021/03/02 05:31:14;;;;;;;365.37;74.37;;;;;;;;;;4954293;28;20460;-65
2021/03/02 05:33:41;;;;;;;252.13;68.60;;;;;;;;;;4954063;28;20848;-64
2021/03/02 05:36:08;;;;;;;252.93;71.43;;;;;;;;;;4954650;28;20459;-63
2021/03/02 05:38:35;;;;;;;337.87;77.40;;;;;;;;;;4955038;28;20449;-63
2021/03/02 05:41:02;;;;;;;150.43;59.73;;;;;;;;;;4954174;29;20448;-64
2021/03/02 05:43:29;;;;;;;329.03;74.07;;;;;;;;;;4953701;28;20898;-64
2021/03/02 05:45:56;;;;;;;178.80;63.13;;;;;;;;;;4950142;29;20992;-64
2021/03/02 05:48:24;;;;;;;153.07;58.60;;;;;;;;;;4953898;28;20452;-65
2021/03/02 05:50:53;;;;;;;216.47;71.93;;;;;;;;;;4954515;28;20458;-63
2021/03/02 05:53:21;;;;;;;164.17;62.50;;;;;;;;;;4953348;28;20480;-63
2021/03/02 05:55:48;;;;;;;192.60;68.20;;;;;;;;;;4954069;29;20452;-63
2021/03/02 05:58:15;;;;;;;328.37;81.30;;;;;;;;;;4953588;28;20452;-63
2021/03/02 06:00:42;;;;;;;117.80;58.73;;;;;;;;;;4953843;29;20461;-64
2021/03/02 06:03:08;;;;;;;117.97;58.67;;;;;;;;;;4954196;29;20491;-63
2021/03/02 06:05:35;;;;;;;302.20;71.77;;;;;;;;;;4953374;28;21256;-64
2021/03/02 06:08:02;;;;;;;188.53;63.60;;;;;;;;;;4953692;29;20448;-64
2021/03/02 06:10:30;;;;;;;298.53;78.57;;;;;;;;;;4953563;28;20452;-64
2021/03/02 06:12:57;;;;;;;95.67;55.93;;;;;;;;;;4953160;28;20881;-64
2021/03/02 06:15:24;;;;;;;263.73;68.70;;;;;;;;;;4953255;29;20452;-64
2021/03/02 06:18:08;;;;;;;157.23;59.47;;;;;;;;;;4953268;28;20452;-64
2021/03/02 06:20:34;;;;;;;181.33;58.43;;;;;;;;;;4953481;28;20444;-64
2021/03/02 06:23:19;;;;;;;119.40;56.77;;;;;;;;;;4953391;28;20927;-64
2021/03/02 06:25:46;;;;;;;195.10;54.30;;;;;;;;;;4953716;28;21240;-63
2021/03/02 06:28:13;;;;;;;255.30;65.87;;;;;;;;;;4965749;28;20460;-63
2021/03/02 06:30:39;;;;;;;126.40;53.63;;;;;;;;;;4953335;29;20475;-63
2021/03/02 06:33:17;;;;;;;164.67;51.13;;;;;;;;;;4953421;28;20464;-63
2021/03/02 06:35:45;;;;;;;190.60;60.17;;;;;;;;;;4946065;29;20499;-64
2021/03/02 06:38:11;;;;;;;226.60;62.23;;;;;;;;;;4953329;28;21030;-64
2021/03/02 06:40:39;;;;;;;157.77;57.13;;;;;;;;;;4953118;29;20452;-64
2021/03/02 06:43:07;;;;;;;161.37;56.37;;;;;;;;;;4964163;28;20472;-64
2021/03/02 06:45:33;;;;;;;189.77;62.03;;;;;;;;;;4954550;28;20852;-63
2021/03/02 06:48:04;;;;;;;145.20;58.13;;;;;;;;;;4956244;28;20531;-64
2021/03/02 06:50:36;;;;;;;251.77;65.80;;;;;;;;;;4954006;28;20448;-64
2021/03/02 06:53:08;;;;;;;159.90;53.37;;;;;;;;;;4953276;28;20496;-63
2021/03/02 06:55:37;;;;;;;130.13;52.80;;;;;;;;;;4992992;23;20510;-63
2021/03/02 06:58:23;;;;;;;22.77;13.20;;;;;;;;;;4998027;28;20453;-65
2021/03/02 07:00:51;;;;;;;17.23;14.10;;;;;;;;;;4990991;28;20521;-65
2021/03/02 07:03:25;;;;;;;20.03;15.70;;;;;;;;;;4989432;28;20459;-63
2021/03/02 07:05:52;;;;;;;17.43;15.67;;;;;;;;;;4994727;28;20492;-63
2021/03/02 07:08:19;;;;;;;14.73;13.33;;;;;;;;;;5006319;28;20462;-63
2021/03/02 07:10:50;;;;;;;12.40;11.10;;;;;;;;;;4991411;28;21090;-64
2021/03/02 07:13:16;;;;;;;13.40;12.00;;;;;;;;;;4991941;28;20979;-63
2021/03/02 07:15:45;;;;;;;11.67;10.63;;;;;;;;;;4990481;28;20470;-63
2021/03/02 07:18:13;;;;;;;11.30;10.23;;;;;;;;;;4992135;28;20457;-63
2021/03/02 07:20:40;;;;;;;10.80;9.83;;;;;;;;;;4982379;28;20460;-61
2021/03/02 07:23:07;;;;;;;10.17;9.47;;;;;;;;;;4992224;28;20454;-61
2021/03/02 07:25:36;;;;;;;11.00;10.10;;;;;;;;;;4979733;28;20503;-61
2021/03/02 07:28:03;;;;;;;10.40;9.43;;;;;;;;;;4986740;28;20989;-61
2021/03/02 07:30:30;;;;;;;9.47;8.67;;;;;;;;;;4991010;28;20454;-61
2021/03/02 07:32:57;;;;;;;9.30;8.50;;;;;;;;;;4992227;28;20455;-61
2021/03/02 07:35:25;;;;;;;8.13;7.53;;;;;;;;;;4993478;28;20474;-61
2021/03/02 07:37:52;;;;;;;8.43;7.63;;;;;;;;;;4992061;28;20501;-61
2021/03/02 07:40:20;;;;;;;7.83;7.17;;;;;;;;;;4995525;28;20916;-61
2021/03/02 07:42:46;;;;;;;7.33;6.73;;;;;;;;;;4995196;28;20454;-61
2021/03/02 07:45:13;;;;;;;7.90;7.30;;;;;;;;;;5000490;28;20504;-61
2021/03/02 07:47:44;;;;;;;7.83;7.00;;;;;;;;;;5005501;28;20528;-62
2021/03/02 07:50:22;;;;;;;8.30;7.50;;;;;;;;;;5003596;28;21014;-63
2021/03/02 07:52:50;;;;;;;8.07;7.37;;;;;;;;;;5003017;28;20450;-62
2021/03/02 07:55:18;;;;;;;7.23;6.53;;;;;;;;;;5000230;28;20485;-62
2021/03/02 07:57:45;;;;;;;7.70;7.00;;;;;;;;;;4997531;28;20929;-61
2021/03/02 08:00:22;;;;;;;7.40;6.80;;;;;;;;;;4996910;28;20450;-61
2021/03/02 08:03:07;;;;;;;7.47;6.87;;;;;;;;;;5009387;28;20823;-62
2021/03/02 08:05:34;;;;;;;7.80;7.10;;;;;;;;;;5004038;28;20861;-61
2021/03/02 08:08:16;;;;;;;20.47;18.90;;;;;;;;;;5007537;28;20956;-63
2021/03/02 08:10:43;;;;;;;21.67;19.87;;;;;;;;;;4989655;28;20439;-62
2021/03/02 08:13:24;;;;;;;22.03;19.83;;;;;;;;;;4999523;28;20532;-62
2021/03/02 08:15:51;;;;;;;21.23;19.40;;;;;;;;;;4995308;28;20467;-62
2021/03/02 08:18:28;;;;;;;20.00;18.30;;;;;;;;;;5014111;28;20481;-63
2021/03/02 08:21:11;;;;;;;20.03;18.33;;;;;;;;;;4986194;28;20489;-62
2021/03/02 08:23:48;;;;;;;20.80;18.87;;;;;;;;;;4995982;28;20458;-62
2021/03/02 08:26:25;;;;;;;21.17;19.20;;;;;;;;;;4994126;28;20490;-62
2021/03/02 08:29:04;;;;;;;22.23;20.13;;;;;;;;;;4995274;28;20460;-62
2021/03/02 08:31:31;;;;;;;22.67;20.33;;;;;;;;;;4993899;28;20961;-61
2021/03/02 08:33:59;;;;;;;21.73;19.70;;;;;;;;;;4994662;28;20451;-62
2021/03/02 08:36:26;;;;;;;22.60;20.27;;;;;;;;;;4993679;28;20454;-61
2021/03/02 08:38:53;;;;;;;21.93;19.90;;;;;;;;;;4994592;28;20446;-61
2021/03/02 08:41:30;;;;;;;23.03;21.03;;;;;;;;;;4977431;28;20451;-62
2021/03/02 08:43:57;;;;;;;22.23;20.23;;;;;;;;;;4985251;28;21117;-62
2021/03/02 08:46:24;;;;;;;21.33;19.23;;;;;;;;;;4976762;28;20488;-61
2021/03/02 08:48:50;;;;;;;22.23;20.23;;;;;;;;;;4974752;28;20455;-62
2021/03/02 08:51:19;;;;;;;21.80;19.93;;;;;;;;;;4989571;28;20450;-61
2021/03/02 08:53:48;;;;;;;21.97;20.07;;;;;;;;;;4994033;28;20482;-61
2021/03/02 08:56:19;;;;;;;21.47;19.50;;;;;;;;;;4979182;28;20483;-62
2021/03/02 08:58:47;;;;;;;22.67;20.47;;;;;;;;;;4994651;28;20473;-61
2021/03/02 09:01:15;;;;;;;22.63;20.60;;;;;;;;;;4981709;28;20447;-62
2021/03/02 09:03:42;;;;;;;22.30;20.17;;;;;;;;;;4975018;28;20457;-62
2021/03/02 09:06:13;;;;;;;21.43;19.53;;;;;;;;;;4974225;28;20502;-61
2021/03/02 09:08:57;;;;;;;20.93;19.03;;;;;;;;;;4974769;28;20436;-62
2021/03/02 09:11:26;;;;;;;22.53;20.53;;;;;;;;;;4992927;28;20457;-62
2021/03/02 09:13:53;;;;;;;21.07;19.03;;;;;;;;;;5013248;28;20456;-61
2021/03/02 09:16:38;;;;;;;21.03;19.23;;;;;;;;;;4999204;28;20469;-61
2021/03/02 09:19:07;;;;;;;21.50;19.40;;;;;;;;;;4994109;28;20461;-61
2021/03/02 09:21:34;;;;;;;21.57;19.63;;;;;;;;;;4992999;28;20460;-62
2021/03/02 09:24:01;;;;;;;22.63;20.60;;;;;;;;;;4993944;28;20447;-61
2021/03/02 09:26:29;;;;;;;21.67;19.67;;;;;;;;;;4992627;28;20508;-62
2021/03/02 09:28:57;;;;;;;22.07;20.07;;;;;;;;;;4994309;28;20450;-61
2021/03/02 09:31:24;;;;;;;20.43;18.57;;;;;;;;;;4993625;28;20478;-61
2021/03/02 09:33:51;;;;;;;22.13;19.90;;;;;;;;;;4994159;28;20541;-61
2021/03/02 09:36:18;;;;;;;20.50;18.70;;;;;;;;;;4977363;28;20486;-61
2021/03/02 09:38:44;;;;;;;20.03;18.27;;;;;;;;;;4980574;28;20465;-63
2021/03/02 09:41:11;;;;;;;20.17;18.27;;;;;;;;;;4995002;28;20449;-63
2021/03/02 09:43:39;;;;;;;20.70;18.50;;;;;;;;;;4994360;28;20869;-63
2021/03/02 09:46:06;;;;;;;18.70;17.20;;;;;;;;;;4995521;28;20488;-63
2021/03/02 09:48:46;;;;;;;20.23;18.53;;;;;;;;;;4996777;28;20447;-63
2021/03/02 09:51:28;;;;;;;21.73;19.70;;;;;;;;;;4989029;28;20853;-64
2021/03/02 09:53:54;;;;;;;19.33;17.73;;;;;;;;;;4995926;28;20455;-64
2021/03/02 09:56:21;;;;;;;20.83;19.03;;;;;;;;;;4978071;28;20475;-62
2021/03/02 09:58:49;;;;;;;22.13;20.20;;;;;;;;;;4977957;28;20451;-62
2021/03/02 10:01:26;;;;;;;21.43;19.47;;;;;;;;;;4993043;28;20822;-61
2021/03/02 10:03:53;;;;;;;20.43;18.67;;;;;;;;;;5009830;28;20449;-64
2021/03/02 10:06:25;;;;;;;19.10;17.40;;;;;;;;;;4993904;28;20498;-62
2021/03/02 10:08:52;;;;;;;21.17;19.30;;;;;;;;;;4995680;28;20451;-62
2021/03/02 10:11:21;;;;;;;20.57;18.60;;;;;;;;;;4995649;28;20459;-64
2021/03/02 10:13:50;;;;;;;21.90;19.90;;;;;;;;;;4992398;28;20566;-61
2021/03/02 10:16:22;;;;;;;22.17;19.97;;;;;;;;;;4977950;28;20471;-60
2021/03/02 10:18:50;;;;;;;21.00;19.20;;;;;;;;;;4989978;28;20451;-62
2021/03/02 10:21:18;;;;;;;18.50;12.77;;;;;;;;;;4988239;28;20501;-65
2021/03/02 10:23:45;;;;;;;13.87;9.23;;;;;;;;;;4985761;28;20459;-62
2021/03/02 10:26:12;;;;;;;17.23;8.30;;;;;;;;;;4987163;28;20486;-61
2021/03/02 10:28:39;;;;;;;11.33;8.30;;;;;;;;;;4993162;28;20836;-61
2021/03/02 10:31:06;;;;;;;12.90;8.90;;;;;;;;;;5005209;28;20461;-61
2021/03/02 10:33:33;;;;;;;21.87;8.60;;;;;;;;;;4984316;28;20461;-62
2021/03/02 10:35:59;;;;;;;15.50;8.73;;;;;;;;;;5011698;28;20468;-61
2021/03/02 10:38:26;;;;;;;13.37;9.10;;;;;;;;;;4982974;28;20459;-61
2021/03/02 10:40:53;;;;;;;11.63;8.30;;;;;;;;;;5001277;28;20467;-63
2021/03/02 10:43:19;;;;;;;12.40;8.37;;;;;;;;;;4997525;28;20462;-62
2021/03/02 10:45:46;;;;;;;11.03;7.90;;;;;;;;;;4992295;28;20474;-61
2021/03/02 10:48:13;;;;;;;9.17;6.97;;;;;;;;;;4991196;28;20827;-62
2021/03/02 10:50:40;;;;;;;10.90;7.37;;;;;;;;;;4981251;28;20984;-61
2021/03/02 10:53:06;;;;;;;10.03;7.27;;;;;;;;;;4989958;28;20455;-62
2021/03/02 10:55:33;;;;;;;9.83;8.20;;;;;;;;;;4972002;28;20482;-62
2021/03/02 10:58:00;;;;;;;11.60;8.60;;;;;;;;;;4987433;28;20509;-62
2021/03/02 11:00:26;;;;;;;9.70;8.60;;;;;;;;;;4991981;28;20450;-61
2021/03/02 11:02:53;;;;;;;8.93;6.90;;;;;;;;;;4986717;28;20440;-62
2021/03/02 11:05:21;;;;;;;9.70;7.97;;;;;;;;;;4987046;28;20473;-62
2021/03/02 11:07:47;;;;;;;11.00;8.00;;;;;;;;;;4992304;28;20486;-61
2021/03/02 11:10:15;;;;;;;8.77;7.87;;;;;;;;;;4998167;28;21135;-62
2021/03/02 11:12:42;;;;;;;9.50;8.13;;;;;;;;;;4973787;28;20486;-62
2021/03/02 11:15:11;;;;;;;8.93;7.70;;;;;;;;;;4976402;28;20489;-61
2021/03/02 11:17:38;;;;;;;8.53;7.80;;;;;;;;;;4976850;28;20459;-62
2021/03/02 11:20:05;;;;;;;8.87;7.97;;;;;;;;;;4994574;28;20473;-61
2021/03/02 11:22:33;;;;;;;11.17;8.50;;;;;;;;;;4992342;28;20453;-62
2021/03/02 11:25:00;;;;;;;11.83;8.43;;;;;;;;;;5018114;28;20573;-62
2021/03/02 11:27:26;;;;;;;8.93;7.90;;;;;;;;;;4997147;28;20485;-62
2021/03/02 11:29:53;;;;;;;11.70;9.23;;;;;;;;;;5003224;28;20954;-61
2021/03/02 11:32:20;;;;;;;10.07;8.63;;;;;;;;;;4992531;28;20446;-63
2021/03/02 11:34:46;;;;;;;9.53;8.33;;;;;;;;;;5012787;28;20464;-61
2021/03/02 11:37:13;;;;;;;10.40;8.37;;;;;;;;;;4997494;28;20472;-61
2021/03/02 11:39:40;;;;;;;10.00;8.93;;;;;;;;;;4987209;28;20450;-62
2021/03/02 11:42:07;;;;;;;12.20;9.80;;;;;;;;;;4995061;28;20867;-61
2021/03/02 11:44:34;;;;;;;10.73;9.30;;;;;;;;;;4994208;28;20475;-62
2021/03/02 11:47:00;;;;;;;11.13;9.27;;;;;;;;;;5004262;28;20504;-62
2021/03/02 11:49:27;;;;;;;12.13;10.33;;;;;;;;;;4992296;28;20459;-62
2021/03/02 11:51:53;;;;;;;10.70;9.60;;;;;;;;;;4994771;28;20537;-62
2021/03/02 11:54:20;;;;;;;11.77;10.40;;;;;;;;;;4980470;28;20468;-62
2021/03/02 11:56:48;;;;;;;11.20;9.90;;;;;;;;;;4982668;28;20477;-62
2021/03/02 11:59:14;;;;;;;11.70;9.40;;;;;;;;;;4994335;28;20504;-62
2021/03/02 12:01:41;;;;;;;10.30;9.30;;;;;;;;;;4994807;28;20446;-62
2021/03/02 12:04:08;;;;;;;10.87;9.53;;;;;;;;;;4987345;28;20462;-62
2021/03/02 12:06:34;;;;;;;10.80;9.70;;;;;;;;;;4989596;28;20493;-62
2021/03/02 12:09:01;;;;;;;10.47;9.47;;;;;;;;;;4995342;28;20457;-65
2021/03/02 12:11:27;;;;;;;11.17;10.07;;;;;;;;;;5000670;28;20984;-63
2021/03/02 12:13:55;;;;;;;10.70;9.07;;;;;;;;;;4994013;28;20461;-63
2021/03/02 12:16:21;;;;;;;11.03;9.93;;;;;;;;;;4986790;28;20467;-63
2021/03/02 12:18:48;;;;;;;11.93;9.50;;;;;;;;;;4974948;28;20454;-63
2021/03/02 12:21:15;;;;;;;9.63;8.67;;;;;;;;;;4989756;28;20473;-61
2021/03/02 12:23:41;;;;;;;9.77;8.77;;;;;;;;;;4983446;28;20467;-61
2021/03/02 12:26:08;;;;;;;11.00;9.83;;;;;;;;;;4984804;28;20498;-61
2021/03/02 12:28:34;;;;;;;11.60;10.50;;;;;;;;;;4990430;28;20959;-61
2021/03/02 12:31:02;;;;;;;11.83;10.53;;;;;;;;;;4975336;28;20993;-62
2021/03/02 12:33:29;;;;;;;10.60;9.60;;;;;;;;;;4975740;28;20818;-61
2021/03/02 12:35:55;;;;;;;9.40;8.50;;;;;;;;;;4975404;28;20478;-61
2021/03/02 12:38:22;;;;;;;18.27;16.60;;;;;;;;;;4987242;28;20464;-62
2021/03/02 12:40:49;;;;;;;20.43;18.67;;;;;;;;;;4993962;28;20446;-60
2021/03/02 12:43:15;;;;;;;19.83;18.13;;;;;;;;;;4984370;28;20463;-61
2021/03/02 12:45:42;;;;;;;19.00;17.37;;;;;;;;;;4974668;28;20467;-62
2021/03/02 12:48:10;;;;;;;20.10;18.20;;;;;;;;;;4989200;28;20458;-63
2021/03/02 12:50:37;;;;;;;17.00;15.30;;;;;;;;;;4994159;28;20454;-63
2021/03/02 12:53:03;;;;;;;20.83;18.90;;;;;;;;;;4980005;28;20459;-64
2021/03/02 12:55:30;;;;;;;19.00;17.20;;;;;;;;;;4999736;23;20493;-67
2021/03/02 12:57:56;;;;;;;19.37;17.73;;;;;;;;;;5001073;28;20445;-66
2021/03/02 13:00:25;;;;;;;20.53;18.33;;;;;;;;;;5003578;28;20970;-66
2021/03/02 13:02:52;;;;;;;20.70;18.70;;;;;;;;;;5003700;28;20454;-66
2021/03/02 13:05:20;;;;;;;20.20;18.33;;;;;;;;;;5005271;28;20474;-67
2021/03/02 13:07:47;;;;;;;17.50;15.90;;;;;;;;;;5005918;28;20486;-66
2021/03/02 13:10:14;;;;;;;18.40;16.67;;;;;;;;;;4997329;28;20456;-66
2021/03/02 13:12:41;;;;;;;19.37;17.30;;;;;;;;;;4994952;28;20940;-66
2021/03/02 13:15:08;;;;;;;19.00;17.50;;;;;;;;;;4998473;28;21024;-66
2021/03/02 13:17:35;;;;;;;20.20;18.40;;;;;;;;;;4994661;28;20447;-65
2021/03/02 13:20:01;;;;;;;19.33;17.33;;;;;;;;;;4993869;28;20455;-66
2021/03/02 13:22:29;;;;;;;20.73;18.93;;;;;;;;;;4994158;28;20447;-66
2021/03/02 13:24:55;;;;;;;19.13;17.43;;;;;;;;;;4993800;28;20474;-67
2021/03/02 13:27:23;;;;;;;18.20;16.50;;;;;;;;;;4993519;28;21020;-66
2021/03/02 13:29:51;;;;;;;19.00;17.10;;;;;;;;;;4993755;28;20449;-65
2021/03/02 13:32:20;;;;;;;20.37;18.37;;;;;;;;;;4994181;28;20446;-66
2021/03/02 13:34:47;;;;;;;19.20;17.50;;;;;;;;;;4993963;28;20487;-65
2021/03/02 13:37:15;;;;;;;22.37;18.93;;;;;;;;;;4992663;28;20950;-67
2021/03/02 13:39:43;;;;;;;18.60;16.80;;;;;;;;;;4993369;28;20453;-66
2021/03/02 13:42:10;;;;;;;20.53;18.53;;;;;;;;;;5000955;28;20952;-66
2021/03/02 13:44:37;;;;;;;20.40;18.60;;;;;;;;;;5011178;28;20499;-66
2021/03/02 13:47:04;;;;;;;20.37;18.63;;;;;;;;;;5012192;28;20482;-65
2021/03/02 13:49:30;;;;;;;19.40;17.70;;;;;;;;;;5012755;28;20459;-66
2021/03/02 13:51:57;;;;;;;20.63;18.50;;;;;;;;;;5012985;28;20449;-66
2021/03/02 13:54:24;;;;;;;21.07;19.10;;;;;;;;;;5012869;28;20813;-65
2021/03/02 13:56:51;;;;;;;20.50;18.60;;;;;;;;;;5006078;28;20478;-66
2021/03/02 13:59:18;;;;;;;19.67;18.00;;;;;;;;;;4993149;28;20508;-65
2021/03/02 14:01:45;;;;;;;20.87;18.97;;;;;;;;;;4993076;28;20968;-66
2021/03/02 14:04:11;;;;;;;20.83;18.87;;;;;;;;;;4993015;28;20450;-66
2021/03/02 14:06:39;;;;;;;20.67;18.67;;;;;;;;;;4993400;28;20606;-65
2021/03/02 14:09:06;;;;;;;20.17;18.37;;;;;;;;;;4993082;28;20454;-65
2021/03/02 14:11:33;;;;;;;18.43;16.73;;;;;;;;;;5005206;28;20503;-66
2021/03/02 14:14:02;;;;;;;20.30;18.50;;;;;;;;;;5012185;28;21049;-65
2021/03/02 14:16:29;;;;;;;20.20;18.13;;;;;;;;;;5012070;28;20889;-66
2021/03/02 14:18:56;;;;;;;20.33;18.57;;;;;;;;;;5012265;28;20449;-65
2021/03/02 14:21:23;;;;;;;20.50;18.70;;;;;;;;;;5012666;28;20457;-66
2021/03/02 14:23:50;;;;;;;20.00;18.00;;;;;;;;;;5010212;28;20460;-66